Time;durP1;ratioP1;P1;durP2;ratioP2;P2;SDS_P1;SDS_P2;PMS_P1;PMS_P2;Temp;Humidity;BMP_temperature;BMP_pressure;BME280_temperature;BME280_humidity;BME280_pressure;Samples;Min_cycle;Max_cycle;Signal;HPM_P1;HPM_P2
2021/08/28 00:01:50;;;;;;;26.70;12.95;;;11.30;99.90;;;;;;4907551;29;20503;-92
2021/08/28 00:04:20;;;;;;;18.40;9.93;;;11.20;99.90;;;;;;4907664;29;20114;-93
2021/08/28 00:06:46;;;;;;;27.67;7.57;;;11.20;99.90;;;;;;4923526;29;20020;-93
2021/08/28 00:09:12;;;;;;;24.38;9.35;;;11.20;99.90;;;;;;4922902;29;20024;-92
2021/08/28 00:11:37;;;;;;;18.13;7.43;;;11.20;99.90;;;;;;4923498;29;20629;-92
2021/08/28 00:14:03;;;;;;;23.58;8.15;;;11.10;99.90;;;;;;4922973;29;20035;-92
2021/08/28 00:16:29;;;;;;;15.77;6.90;;;11.10;99.90;;;;;;4922851;29;20040;-92
2021/08/28 00:18:56;;;;;;;15.73;7.30;;;11.10;99.90;;;;;;4923600;29;20562;-92
2021/08/28 00:21:22;;;;;;;22.08;7.15;;;11.00;99.90;;;;;;4922845;29;20024;-92
2021/08/28 00:23:47;;;;;;;16.45;6.63;;;11.00;99.90;;;;;;4922381;29;20102;-93
2021/08/28 00:26:13;;;;;;;20.92;6.63;;;10.90;99.90;;;;;;4923202;29;20024;-93
2021/08/28 00:28:39;;;;;;;19.95;7.13;;;11.00;99.90;;;;;;4922632;29;20020;-92
2021/08/28 00:31:06;;;;;;;21.95;6.53;;;11.00;99.90;;;;;;4922819;29;20103;-93
2021/08/28 00:33:31;;;;;;;23.98;6.80;;;10.90;99.90;;;;;;4922851;29;20471;-92
2021/08/28 00:35:57;;;;;;;20.98;6.43;;;10.90;99.90;;;;;;4922544;29;20028;-92
2021/08/28 00:38:23;;;;;;;22.35;7.10;;;10.90;99.90;;;;;;4922719;29;20554;-93
2021/08/28 00:40:48;;;;;;;20.50;6.80;;;10.90;99.90;;;;;;4922753;29;20080;-92
2021/08/28 00:43:14;;;;;;;17.48;6.72;;;10.90;99.90;;;;;;4922631;29;20162;-92
2021/08/28 00:45:42;;;;;;;22.38;7.63;;;10.90;99.90;;;;;;4922173;29;20112;-92
2021/08/28 00:48:10;;;;;;;23.63;7.60;;;10.90;99.90;;;;;;4922126;29;20031;-92
2021/08/28 00:50:37;;;;;;;18.45;5.95;;;10.90;99.90;;;;;;4922050;29;20032;-92
2021/08/28 00:53:08;;;;;;;19.83;6.40;;;10.80;99.90;;;;;;4922427;29;20387;-93
2021/08/28 00:55:48;;;;;;;20.23;6.57;;;10.80;99.90;;;;;;4922276;29;20028;-92
2021/08/28 00:58:15;;;;;;;17.73;7.03;;;10.80;99.90;;;;;;4921184;29;20155;-92
2021/08/28 01:00:44;;;;;;;16.20;6.15;;;10.80;99.90;;;;;;4921799;29;20024;-92
2021/08/28 01:03:12;;;;;;;15.52;7.28;;;10.80;99.90;;;;;;4921719;29;20035;-92
2021/08/28 01:05:54;;;;;;;22.48;7.40;;;10.80;99.90;;;;;;4922031;29;20035;-93
2021/08/28 01:08:43;;;;;;;29.23;9.27;;;10.80;99.90;;;;;;4923144;29;20048;-92
2021/08/28 01:11:15;;;;;;;17.73;8.38;;;10.80;99.90;;;;;;4921304;29;20034;-92
2021/08/28 01:13:49;;;;;;;16.52;7.97;;;10.80;99.90;;;;;;4921671;29;20111;-92
2021/08/28 01:16:16;;;;;;;16.42;7.90;;;10.80;99.90;;;;;;4921985;29;20040;-93
2021/08/28 01:18:44;;;;;;;18.38;6.35;;;10.80;99.90;;;;;;4921740;29;20051;-92
2021/08/28 01:21:32;;;;;;;22.45;7.60;;;10.80;99.90;;;;;;4923463;29;20035;-93
2021/08/28 01:24:00;;;;;;;17.65;8.10;;;10.70;99.90;;;;;;4921838;29;20024;-92
2021/08/28 01:26:34;;;;;;;19.52;6.60;;;10.70;99.90;;;;;;4907231;29;20043;-92
2021/08/28 01:29:17;;;;;;;19.83;7.05;;;10.60;99.90;;;;;;4922414;29;20039;-93
2021/08/28 01:31:44;;;;;;;16.80;7.30;;;10.60;99.90;;;;;;4921946;29;20402;-92
2021/08/28 01:34:12;;;;;;;19.30;6.93;;;10.60;99.90;;;;;;4922931;29;20028;-92
2021/08/28 01:36:38;;;;;;;19.92;6.68;;;10.60;99.90;;;;;;4925888;29;20032;-92
2021/08/28 01:39:05;;;;;;;21.80;6.75;;;10.60;99.90;;;;;;4939131;29;20023;-93
2021/08/28 01:41:31;;;;;;;11.00;5.82;;;10.60;99.90;;;;;;4937864;29;20099;-92
2021/08/28 01:43:58;;;;;;;20.88;6.78;;;10.70;99.90;;;;;;4923014;29;20059;-92
2021/08/28 01:46:24;;;;;;;20.10;7.00;;;10.60;99.90;;;;;;4922691;29;20031;-93
2021/08/28 01:48:50;;;;;;;19.73;6.93;;;10.60;99.90;;;;;;4921675;29;20028;-92
2021/08/28 01:51:20;;;;;;;36.40;9.10;;;10.60;99.90;;;;;;4921419;29;20020;-92
2021/08/28 01:53:45;;;;;;;19.48;6.93;;;10.60;99.90;;;;;;4921981;29;20024;-91
2021/08/28 01:56:11;;;;;;;14.85;6.60;;;10.60;99.90;;;;;;4921608;29;20093;-92
2021/08/28 01:58:37;;;;;;;16.38;6.07;;;10.60;99.90;;;;;;4921843;29;20098;-92
2021/08/28 02:01:03;;;;;;;16.00;7.05;;;10.50;99.90;;;;;;4921525;29;20020;-91
2021/08/28 02:03:29;;;;;;;20.83;7.70;;;10.50;99.90;;;;;;4921837;29;20035;-93
2021/08/28 02:06:02;;;;;;;16.98;6.53;;;10.50;99.90;;;;;;4921878;29;20114;-92
2021/08/28 02:08:41;;;;;;;23.35;6.78;;;10.50;99.90;;;;;;4922443;29;20463;-92
2021/08/28 02:11:25;;;;;;;16.15;6.30;;;10.50;99.90;;;;;;4925063;29;20028;-92
2021/08/28 02:14:02;;;;;;;20.80;7.50;;;10.60;99.90;;;;;;4925552;29;20036;-92
2021/08/28 02:16:33;;;;;;;13.68;6.80;;;10.60;99.90;;;;;;4925081;29;20107;-92
2021/08/28 02:19:11;;;;;;;22.40;7.03;;;10.60;99.90;;;;;;4925162;29;20028;-92
2021/08/28 02:21:39;;;;;;;16.05;6.60;;;10.70;99.90;;;;;;4924810;29;20030;-92
2021/08/28 02:24:15;;;;;;;16.25;7.22;;;10.70;99.90;;;;;;4924353;29;20040;-92
2021/08/28 02:26:48;;;;;;;22.50;6.18;;;10.70;99.90;;;;;;4925009;29;20036;-92
2021/08/28 02:29:21;;;;;;;17.92;6.90;;;10.80;99.90;;;;;;4925155;29;20024;-92
2021/08/28 02:31:49;;;;;;;14.57;6.35;;;10.80;99.90;;;;;;4924814;29;20028;-93
2021/08/28 02:34:18;;;;;;;18.35;7.03;;;10.80;99.90;;;;;;4924944;29;20036;-92
2021/08/28 02:36:45;;;;;;;20.73;6.95;;;10.80;99.90;;;;;;4925038;29;20087;-93
2021/08/28 02:39:15;;;;;;;13.52;6.25;;;10.90;99.90;;;;;;4925456;29;20032;-93
2021/08/28 02:41:43;;;;;;;18.50;6.38;;;10.90;99.90;;;;;;4924703;29;20043;-91
2021/08/28 02:44:11;;;;;;;24.48;7.38;;;10.90;99.90;;;;;;4924330;29;20032;-93
2021/08/28 02:46:37;;;;;;;19.65;6.30;;;11.00;99.90;;;;;;4925277;29;20477;-93
2021/08/28 02:49:04;;;;;;;14.25;6.95;;;11.00;99.90;;;;;;4924560;29;20040;-93
2021/08/28 02:51:31;;;;;;;19.08;5.90;;;11.00;99.90;;;;;;4925043;29;20122;-93
2021/08/28 02:54:00;;;;;;;17.75;5.57;;;11.10;99.90;;;;;;4925199;29;20032;-92
2021/08/28 02:56:28;;;;;;;16.15;6.47;;;11.10;99.90;;;;;;4924549;29;20020;-92
2021/08/28 02:58:53;;;;;;;15.68;5.75;;;11.10;99.90;;;;;;4925217;29;20032;-93
2021/08/28 03:01:20;;;;;;;17.80;6.72;;;11.20;99.90;;;;;;4924515;29;20020;-93
2021/08/28 03:03:47;;;;;;;16.70;5.60;;;11.20;99.90;;;;;;4924044;29;20035;-93
2021/08/28 03:06:14;;;;;;;12.70;6.15;;;11.20;99.90;;;;;;4925254;29;20032;-93
2021/08/28 03:08:43;;;;;;;19.20;5.85;;;11.20;99.90;;;;;;4924974;29;20036;-93
2021/08/28 03:11:11;;;;;;;17.50;6.25;;;11.30;99.90;;;;;;4924614;29;20051;-92
2021/08/28 03:13:36;;;;;;;15.65;6.25;;;11.30;99.90;;;;;;4908824;29;20084;-92
2021/08/28 03:16:03;;;;;;;12.20;6.28;;;11.30;99.90;;;;;;4924170;29;20024;-92
2021/08/28 03:18:32;;;;;;;15.02;6.10;;;11.30;99.90;;;;;;4924927;29;20067;-93
2021/08/28 03:20:58;;;;;;;18.75;6.85;;;11.30;99.90;;;;;;4923318;29;20024;-92
2021/08/28 03:23:30;;;;;;;16.23;6.43;;;11.30;99.90;;;;;;4925848;29;20304;-93
2021/08/28 03:25:57;;;;;;;14.82;5.95;;;11.30;99.90;;;;;;4937069;29;20036;-93
2021/08/28 03:28:24;;;;;;;24.73;6.50;;;11.30;99.90;;;;;;4941296;29;20026;-92
2021/08/28 03:30:51;;;;;;;14.93;5.80;;;11.30;99.90;;;;;;4931831;29;20032;-93
2021/08/28 03:33:18;;;;;;;18.00;5.82;;;11.30;99.90;;;;;;4924323;29;20474;-93
2021/08/28 03:35:46;;;;;;;17.17;6.15;;;11.30;99.90;;;;;;4924305;29;20125;-92
2021/08/28 03:38:12;;;;;;;10.60;6.00;;;11.40;99.90;;;;;;4924789;29;20040;-93
2021/08/28 03:40:39;;;;;;;18.98;7.00;;;11.40;99.90;;;;;;4923743;29;20020;-92
2021/08/28 03:43:05;;;;;;;17.85;5.28;;;11.40;99.90;;;;;;4924132;29;20066;-93
2021/08/28 03:45:31;;;;;;;17.58;5.32;;;11.50;99.90;;;;;;4924521;29;20024;-92
2021/08/28 03:47:57;;;;;;;17.92;5.55;;;11.50;99.90;;;;;;4923751;29;20020;-93
2021/08/28 03:50:23;;;;;;;16.85;6.13;;;11.60;99.90;;;;;;4924466;29;20028;-92
2021/08/28 03:52:50;;;;;;;19.90;6.28;;;11.60;99.90;;;;;;4924667;29;20032;-92
2021/08/28 03:55:15;;;;;;;17.45;5.70;;;11.60;99.90;;;;;;4923538;29;20043;-92
2021/08/28 03:57:41;;;;;;;18.00;6.20;;;11.60;99.90;;;;;;4908878;29;20044;-92
2021/08/28 04:00:08;;;;;;;15.80;6.18;;;11.60;99.90;;;;;;4923479;29;20025;-92
2021/08/28 04:02:33;;;;;;;21.75;7.03;;;11.60;99.90;;;;;;4923395;29;20040;-92
2021/08/28 04:04:59;;;;;;;18.00;6.28;;;11.60;99.90;;;;;;4924437;29;20043;-92
2021/08/28 04:07:25;;;;;;;16.98;6.00;;;11.60;99.90;;;;;;4923571;29;20545;-92
2021/08/28 04:09:51;;;;;;;21.33;6.40;;;11.60;99.90;;;;;;4922958;29;20036;-92
2021/08/28 04:12:16;;;;;;;13.50;6.05;;;11.60;99.90;;;;;;4923521;29;20044;-92
2021/08/28 04:14:42;;;;;;;18.38;6.30;;;11.50;99.90;;;;;;4923273;29;20039;-91
2021/08/28 04:17:07;;;;;;;19.42;6.30;;;11.50;99.90;;;;;;4923951;29;20032;-91
2021/08/28 04:19:33;;;;;;;17.17;5.97;;;11.50;99.90;;;;;;4923099;29;20439;-92
2021/08/28 04:21:59;;;;;;;10.82;5.53;;;11.50;99.90;;;;;;4922973;29;20028;-91
2021/08/28 04:24:25;;;;;;;12.13;5.40;;;11.50;99.90;;;;;;4923574;29;20334;-92
2021/08/28 04:26:51;;;;;;;16.30;6.28;;;11.40;99.90;;;;;;4922665;29;20058;-91
2021/08/28 04:29:16;;;;;;;16.63;6.53;;;11.50;99.90;;;;;;4922856;29;20024;-92
2021/08/28 04:31:42;;;;;;;16.83;5.93;;;11.40;99.90;;;;;;4922621;29;20032;-93
2021/08/28 04:34:08;;;;;;;13.38;5.45;;;11.40;99.90;;;;;;4907175;29;20118;-92
2021/08/28 04:36:34;;;;;;;13.75;5.65;;;11.50;99.90;;;;;;4922330;29;20028;-93
2021/08/28 04:39:00;;;;;;;19.88;6.13;;;11.50;99.90;;;;;;4922856;29;20032;-92
2021/08/28 04:41:27;;;;;;;12.93;5.03;;;11.50;99.90;;;;;;4925431;29;20024;-93
2021/08/28 04:43:53;;;;;;;18.20;5.93;;;11.50;99.90;;;;;;4926085;29;20036;-92
2021/08/28 04:46:19;;;;;;;13.18;5.72;;;11.50;99.90;;;;;;4926531;29;20056;-91
2021/08/28 04:48:46;;;;;;;12.35;5.20;;;11.50;99.90;;;;;;4907319;29;20028;-92
2021/08/28 04:51:12;;;;;;;14.05;5.63;;;11.50;99.90;;;;;;4922642;29;20032;-92
2021/08/28 04:53:37;;;;;;;11.75;5.05;;;11.50;99.90;;;;;;4924384;29;20028;-92
2021/08/28 04:56:04;;;;;;;15.63;5.50;;;11.50;99.90;;;;;;4926543;29;20028;-92
2021/08/28 04:58:30;;;;;;;13.07;5.82;;;11.50;99.90;;;;;;4922052;29;20042;-92
2021/08/28 05:00:56;;;;;;;19.30;5.57;;;11.50;99.90;;;;;;4921947;29;20127;-92
2021/08/28 05:03:23;;;;;;;20.38;5.82;;;11.50;99.90;;;;;;4925864;29;20039;-92
2021/08/28 05:05:48;;;;;;;15.25;5.00;;;11.50;99.90;;;;;;4895480;29;20063;-91
2021/08/28 05:08:14;;;;;;;16.35;5.43;;;11.50;99.90;;;;;;4922348;29;20024;-91
2021/08/28 05:10:40;;;;;;;11.10;5.47;;;11.50;99.90;;;;;;4926406;29;20032;-92
2021/08/28 05:13:06;;;;;;;13.13;5.13;;;11.50;99.90;;;;;;4940409;29;20099;-92
2021/08/28 05:15:32;;;;;;;17.10;5.72;;;11.50;99.90;;;;;;4938278;29;20035;-92
2021/08/28 05:17:58;;;;;;;15.45;5.45;;;11.50;99.90;;;;;;4932942;29;20054;-92
2021/08/28 05:20:24;;;;;;;14.30;5.35;;;11.60;99.90;;;;;;4922126;29;20044;-92
2021/08/28 05:22:49;;;;;;;22.13;6.10;;;11.50;99.90;;;;;;4925241;29;20042;-92
2021/08/28 05:25:18;;;;;;;17.27;5.40;;;11.50;99.90;;;;;;4922408;29;20460;-92
2021/08/28 05:27:44;;;;;;;12.80;4.95;;;11.50;99.90;;;;;;4927897;29;20051;-92
2021/08/28 05:30:10;;;;;;;16.45;5.40;;;11.50;99.90;;;;;;4926485;29;20031;-92
2021/08/28 05:32:36;;;;;;;20.00;5.57;;;11.50;99.90;;;;;;4925458;29;20398;-92
2021/08/28 05:35:01;;;;;;;20.98;5.38;;;11.50;99.90;;;;;;4927252;29;20029;-92
2021/08/28 05:37:27;;;;;;;15.00;4.97;;;11.60;99.90;;;;;;4922116;29;20032;-93
2021/08/28 05:39:52;;;;;;;19.45;5.28;;;11.60;99.90;;;;;;4922887;29;20032;-92
2021/08/28 05:42:18;;;;;;;19.42;5.25;;;11.60;99.90;;;;;;4922299;29;20087;-92
2021/08/28 05:44:44;;;;;;;13.40;5.10;;;11.60;99.90;;;;;;4922570;29;20032;-92
2021/08/28 05:47:10;;;;;;;15.18;5.32;;;11.60;99.90;;;;;;4921508;29;20028;-92
2021/08/28 05:49:36;;;;;;;14.70;5.75;;;11.60;99.90;;;;;;4921877;29;20532;-92
2021/08/28 05:52:02;;;;;;;17.67;4.90;;;11.60;99.90;;;;;;4921441;29;20040;-92
2021/08/28 05:54:27;;;;;;;16.15;5.70;;;11.60;99.90;;;;;;4921750;29;20021;-92
2021/08/28 05:56:53;;;;;;;19.17;5.63;;;11.60;99.90;;;;;;4921321;29;20035;-92
2021/08/28 05:59:19;;;;;;;16.15;4.75;;;11.60;99.90;;;;;;4925574;29;20031;-93
2021/08/28 06:01:44;;;;;;;17.35;4.97;;;11.60;99.90;;;;;;4925414;29;20490;-92
2021/08/28 06:04:10;;;;;;;18.33;5.38;;;11.70;99.90;;;;;;4926065;29;20039;-92
2021/08/28 06:06:36;;;;;;;20.92;5.72;;;11.70;99.90;;;;;;4924387;29;20028;-93
2021/08/28 06:09:02;;;;;;;13.80;4.60;;;11.80;99.90;;;;;;4923675;29;20406;-93
2021/08/28 06:11:35;;;;;;;12.93;3.90;;;11.80;99.90;;;;;;4924393;29;20020;-92
2021/08/28 06:14:01;;;;;;;12.23;4.28;;;11.80;99.90;;;;;;4924674;29;20048;-92
2021/08/28 06:16:27;;;;;;;15.15;4.32;;;11.80;99.90;;;;;;4922221;29;20026;-93
2021/08/28 06:18:53;;;;;;;16.67;4.40;;;11.80;99.90;;;;;;4919025;29;20043;-93
2021/08/28 06:21:19;;;;;;;12.57;3.67;;;11.90;99.90;;;;;;4921858;29;20101;-93
2021/08/28 06:23:46;;;;;;;14.10;4.13;;;11.80;99.90;;;;;;4922133;29;20040;-93
2021/08/28 06:26:12;;;;;;;11.48;3.88;;;11.90;99.90;;;;;;4922567;29;20020;-92
2021/08/28 06:28:37;;;;;;;14.82;3.75;;;11.90;99.90;;;;;;4921611;29;20024;-93
2021/08/28 06:31:03;;;;;;;21.77;3.70;;;11.90;99.90;;;;;;4921363;29;20033;-93
2021/08/28 06:33:29;;;;;;;14.27;3.22;;;11.90;99.90;;;;;;4921447;29;20024;-93
2021/08/28 06:35:55;;;;;;;13.90;3.50;;;12.00;99.90;;;;;;4922153;29;20043;-93
2021/08/28 06:38:23;;;;;;;9.52;3.50;;;12.00;99.90;;;;;;4921559;29;20079;-92
2021/08/28 06:40:49;;;;;;;17.10;3.85;;;12.00;99.90;;;;;;4921282;29;20032;-93
2021/08/28 06:43:14;;;;;;;17.65;3.70;;;12.00;99.90;;;;;;4921283;29;20520;-92
2021/08/28 06:45:40;;;;;;;14.95;3.22;;;12.00;99.90;;;;;;4921461;29;20024;-93
2021/08/28 06:48:07;;;;;;;14.35;3.40;;;12.10;99.90;;;;;;4920118;29;20028;-92
2021/08/28 06:50:34;;;;;;;13.75;3.80;;;12.10;99.90;;;;;;4921467;29;20024;-92
2021/08/28 06:52:59;;;;;;;13.85;3.38;;;12.20;99.90;;;;;;4922079;29;20509;-93
2021/08/28 06:55:25;;;;;;;15.43;3.40;;;12.30;99.90;;;;;;4922027;29;20037;-93
2021/08/28 06:57:51;;;;;;;18.35;3.90;;;12.40;99.90;;;;;;4925384;29;20036;-93
2021/08/28 07:00:17;;;;;;;11.68;3.47;;;12.50;99.90;;;;;;4931976;29;20039;-93
2021/08/28 07:02:44;;;;;;;20.90;4.00;;;12.50;99.90;;;;;;4938858;29;20021;-93
2021/08/28 07:05:10;;;;;;;16.33;4.07;;;12.70;99.90;;;;;;4936445;29;20040;-93
2021/08/28 07:07:35;;;;;;;15.35;3.85;;;12.80;99.90;;;;;;4924723;29;20032;-93
2021/08/28 07:10:02;;;;;;;14.40;4.07;;;12.80;99.90;;;;;;4925124;29;20038;-93
2021/08/28 07:12:28;;;;;;;16.00;3.92;;;12.90;99.90;;;;;;4926136;29;20056;-93
2021/08/28 07:14:54;;;;;;;15.65;3.47;;;13.00;99.90;;;;;;4924755;29;20028;-93
2021/08/28 07:17:19;;;;;;;9.73;3.38;;;13.00;99.90;;;;;;4924596;29;20036;-93
2021/08/28 07:19:45;;;;;;;19.05;4.18;;;13.20;99.90;;;;;;4908534;29;20080;-93
2021/08/28 07:22:11;;;;;;;23.45;3.83;;;13.20;99.90;;;;;;4924198;29;20035;-94
2021/08/28 07:24:36;;;;;;;15.25;3.92;;;13.30;99.90;;;;;;4924836;29;20072;-93
2021/08/28 07:27:02;;;;;;;13.43;3.65;;;13.30;99.90;;;;;;4924355;29;20045;-93
2021/08/28 07:29:28;;;;;;;11.15;4.15;;;13.40;99.90;;;;;;4924137;29;20029;-93
2021/08/28 07:31:53;;;;;;;20.63;4.13;;;13.50;99.90;;;;;;4924019;29;20051;-92
2021/08/28 07:34:19;;;;;;;15.50;3.50;;;13.50;99.90;;;;;;4924108;29;20478;-94
2021/08/28 07:36:45;;;;;;;10.57;3.50;;;13.60;99.90;;;;;;4923913;29;20032;-94
2021/08/28 07:39:11;;;;;;;17.25;3.80;;;13.70;99.90;;;;;;4924644;29;20028;-93
2021/08/28 07:41:36;;;;;;;15.23;3.97;;;13.70;99.90;;;;;;4926506;29;20055;-93
2021/08/28 07:44:02;;;;;;;13.60;3.72;;;13.90;99.90;;;;;;4925570;29;20493;-92
2021/08/28 07:46:28;;;;;;;15.10;3.58;;;13.90;99.90;;;;;;4924227;29;20024;-94
2021/08/28 07:48:54;;;;;;;9.90;3.58;;;14.10;99.90;;;;;;4924476;29;20387;-93
2021/08/28 07:51:19;;;;;;;8.65;3.03;;;14.10;99.90;;;;;;4925243;29;20095;-93
2021/08/28 07:53:45;;;;;;;9.43;3.03;;;14.20;99.90;;;;;;4925915;29;20067;-93
2021/08/28 07:56:11;;;;;;;12.25;3.40;;;14.30;99.90;;;;;;4926065;29;20047;-94
2021/08/28 07:58:37;;;;;;;12.52;2.97;;;14.40;99.90;;;;;;4925107;29;20036;-94
2021/08/28 08:01:02;;;;;;;10.55;3.38;;;14.50;99.90;;;;;;4924960;29;20036;-94
2021/08/28 08:03:28;;;;;;;14.73;3.08;;;14.60;99.90;;;;;;4923865;29;20032;-94
2021/08/28 08:05:54;;;;;;;15.40;3.63;;;14.70;99.90;;;;;;4923525;29;20055;-94
2021/08/28 08:08:19;;;;;;;20.73;3.88;;;14.70;99.90;;;;;;4923619;29;20029;-94
2021/08/28 08:10:46;;;;;;;20.08;3.17;;;14.90;99.90;;;;;;4925159;29;20036;-94
2021/08/28 08:13:12;;;;;;;17.30;3.85;;;15.00;99.90;;;;;;4923656;29;20064;-94
2021/08/28 08:15:37;;;;;;;15.20;3.45;;;15.00;99.90;;;;;;4923862;29;20106;-93
2021/08/28 08:18:03;;;;;;;17.88;3.53;;;15.10;99.90;;;;;;4922090;29;20040;-93
2021/08/28 08:20:29;;;;;;;14.80;3.35;;;15.10;99.90;;;;;;4919455;29;20028;-94
2021/08/28 08:22:55;;;;;;;20.92;3.55;;;15.20;99.90;;;;;;4918845;29;20450;-94
2021/08/28 08:25:21;;;;;;;13.82;3.63;;;15.30;99.90;;;;;;4918488;29;20107;-94
2021/08/28 08:27:47;;;;;;;15.57;3.00;;;15.40;99.90;;;;;;4917783;29;20028;-94
2021/08/28 08:30:13;;;;;;;13.00;3.33;;;15.40;99.90;;;;;;4918593;29;20098;-94
2021/08/28 08:32:38;;;;;;;8.57;2.92;;;15.50;99.90;;;;;;4919781;29;20028;-94
2021/08/28 08:35:05;;;;;;;12.82;3.22;;;15.60;99.90;;;;;;4920222;29;20550;-93
2021/08/28 08:37:31;;;;;;;13.88;3.25;;;15.60;99.90;;;;;;4918184;29;20024;-93
2021/08/28 08:39:57;;;;;;;10.82;3.25;;;15.70;99.90;;;;;;4917634;29;20032;-93
2021/08/28 08:42:24;;;;;;;10.88;2.80;;;15.70;99.90;;;;;;4920591;29;20028;-92
2021/08/28 08:44:51;;;;;;;14.35;2.80;;;15.70;99.90;;;;;;4918937;29;20087;-93
2021/08/28 08:47:17;;;;;;;11.00;2.83;;;15.80;99.90;;;;;;4922063;29;20067;-93
2021/08/28 08:49:44;;;;;;;5.65;2.30;;;15.90;99.90;;;;;;4922405;29;20031;-92
2021/08/28 08:52:10;;;;;;;9.98;2.60;;;15.90;99.90;;;;;;4933601;29;20079;-93
2021/08/28 08:54:36;;;;;;;13.52;2.80;;;16.00;99.90;;;;;;4939667;29;20028;-93
2021/08/28 08:57:05;;;;;;;8.07;2.58;;;16.00;99.90;;;;;;4935577;29;20519;-93
2021/08/28 08:59:31;;;;;;;10.63;2.28;;;16.10;99.90;;;;;;4917567;29;20550;-92
2021/08/28 09:01:57;;;;;;;11.27;2.80;;;16.10;99.90;;;;;;4916950;29;20129;-93
2021/08/28 09:04:22;;;;;;;7.97;2.42;;;16.20;99.90;;;;;;4916898;29;20474;-93
2021/08/28 09:06:49;;;;;;;14.18;3.20;;;16.30;99.90;;;;;;4917164;29;20036;-93
2021/08/28 09:09:15;;;;;;;9.70;2.33;;;16.40;99.90;;;;;;4916891;29;20028;-93
2021/08/28 09:12:02;;;;;;;8.30;2.30;;;16.50;99.90;;;;;;4916902;29;20036;-92
2021/08/28 09:14:28;;;;;;;9.68;2.35;;;16.50;99.90;;;;;;4916631;29;20048;-93
2021/08/28 09:17:12;;;;;;;7.93;2.58;;;16.60;99.90;;;;;;4916624;29;20493;-92
2021/08/28 09:19:40;;;;;;;7.50;2.42;;;16.70;99.90;;;;;;4915923;29;20036;-92
2021/08/28 09:22:26;;;;;;;12.18;2.95;;;16.70;99.90;;;;;;4916858;29;20397;-92
2021/08/28 09:24:57;;;;;;;9.55;2.53;;;16.80;99.90;;;;;;4916599;29;20024;-93
2021/08/28 09:27:35;;;;;;;8.10;2.63;;;16.80;99.90;;;;;;4916731;29;20135;-92
2021/08/28 09:30:02;;;;;;;7.82;2.45;;;16.90;99.90;;;;;;4916757;29;20028;-92
2021/08/28 09:32:28;;;;;;;9.52;2.50;;;17.00;99.90;;;;;;4916498;29;20036;-92
2021/08/28 09:35:07;;;;;;;6.60;2.30;;;17.00;99.90;;;;;;4916828;29;20039;-93
2021/08/28 09:37:32;;;;;;;9.00;2.13;;;17.00;99.90;;;;;;4916761;29;20551;-93
2021/08/28 09:40:01;;;;;;;11.43;3.03;;;17.10;99.90;;;;;;4916339;29;20028;-93
2021/08/28 09:42:27;;;;;;;5.18;2.03;;;17.30;99.90;;;;;;4916692;29;20119;-91
2021/08/28 09:44:53;;;;;;;7.32;2.65;;;17.50;99.90;;;;;;4917454;29;20071;-93
2021/08/28 09:47:22;;;;;;;6.68;2.30;;;17.60;99.90;;;;;;4916596;29;20035;-93
2021/08/28 09:49:50;;;;;;;8.25;2.50;;;17.70;99.90;;;;;;4916955;29;20036;-93
2021/08/28 09:52:22;;;;;;;7.18;2.00;;;17.80;99.90;;;;;;4917489;29;20032;-92
2021/08/28 09:54:48;;;;;;;10.82;2.60;;;18.10;99.90;;;;;;4916392;29;20534;-92
2021/08/28 09:57:14;;;;;;;8.25;2.20;;;18.20;99.90;;;;;;4916173;29;20036;-92
2021/08/28 09:59:41;;;;;;;4.72;1.98;;;18.30;99.90;;;;;;4916235;29;20040;-92
2021/08/28 10:02:10;;;;;;;10.52;2.88;;;18.50;99.60;;;;;;4916179;29;20197;-92
2021/08/28 10:04:56;;;;;;;4.80;1.83;;;18.60;98.90;;;;;;4916451;29;20032;-92
2021/08/28 10:07:27;;;;;;;4.38;1.77;;;18.60;98.40;;;;;;4916256;29;20032;-92
2021/08/28 10:10:04;;;;;;;4.10;1.70;;;18.60;98.20;;;;;;4916342;29;20044;-92
2021/08/28 10:12:35;;;;;;;6.32;2.00;;;18.50;97.90;;;;;;4915582;29;20060;-92
2021/08/28 10:15:03;;;;;;;;;;;18.50;97.80;;;;;;4916614;29;20036;-92
2021/08/28 10:17:31;;;;;;;6.65;2.88;;;18.60;97.80;;;;;;4900475;29;19947;-92
2021/08/28 10:19:58;;;;;;;3.67;1.90;;;18.80;97.60;;;;;;4916254;29;20335;-92
2021/08/28 10:22:29;;;;;;;6.72;2.17;;;18.90;97.20;;;;;;4916111;29;20060;-92
2021/08/28 10:24:57;;;;;;;4.07;2.08;;;19.00;96.80;;;;;;4916094;29;20029;-92
2021/08/28 10:27:25;;;;;;;10.25;2.38;;;19.00;96.40;;;;;;4915926;29;20039;-92
2021/08/28 10:29:51;;;;;;;8.18;2.15;;;19.20;96.10;;;;;;4917203;29;20036;-92
2021/08/28 10:32:17;;;;;;;5.07;2.13;;;19.40;95.70;;;;;;4919712;29;20024;-92
2021/08/28 10:34:44;;;;;;;7.60;2.03;;;19.70;94.80;;;;;;4921343;29;20483;-94
2021/08/28 10:37:10;;;;;;;12.73;1.92;;;19.90;93.70;;;;;;4919909;29;20442;-93
2021/08/28 10:39:37;;;;;;;5.55;2.35;;;20.10;92.90;;;;;;4919939;29;20501;-94
2021/08/28 10:42:06;;;;;;;6.22;2.80;;;20.30;92.10;;;;;;4919756;29;20062;-94
2021/08/28 10:44:31;;;;;;;5.30;2.28;;;20.50;91.40;;;;;;4925374;29;20035;-93
2021/08/28 10:47:20;;;;;;;4.00;2.15;;;20.70;90.80;;;;;;4938602;29;20008;-94
2021/08/28 10:49:50;;;;;;;8.32;2.30;;;21.00;90.00;;;;;;4924095;29;20065;-94
2021/08/28 10:52:23;;;;;;;3.90;2.30;;;21.30;88.70;;;;;;4921911;29;20493;-94
2021/08/28 10:54:57;;;;;;;4.82;2.03;;;21.60;86.70;;;;;;4919565;29;20028;-95
2021/08/28 10:57:30;;;;;;;6.82;2.30;;;22.00;84.10;;;;;;4919631;29;20027;-95
2021/08/28 11:00:10;;;;;;;5.45;2.03;;;22.10;81.80;;;;;;4919356;29;20035;-95
2021/08/28 11:02:59;;;;;;;6.07;2.10;;;22.20;80.70;;;;;;4906961;29;20091;-94
2021/08/28 11:05:30;;;;;;;5.07;2.28;;;22.20;80.10;;;;;;4921439;29;20032;-94
2021/08/28 11:07:56;;;;;;;;;;;22.30;79.60;;;;;;4920311;29;20064;-94
2021/08/28 11:10:23;;;;;;;3.70;2.00;;;22.30;79.50;;;;;;4903489;29;19914;-94
2021/08/28 11:12:57;;;;;;;7.05;2.25;;;22.20;79.20;;;;;;4918943;29;20073;-95
2021/08/28 11:15:31;;;;;;;5.70;2.63;;;22.00;78.90;;;;;;4919281;29;20040;-95
2021/08/28 11:18:01;;;;;;;6.90;2.22;;;21.80;78.90;;;;;;4919194;29;20032;-94
2021/08/28 11:20:41;;;;;;;5.78;2.08;;;21.70;78.80;;;;;;4919207;29;20474;-95
2021/08/28 11:23:15;;;;;;;6.25;2.15;;;21.60;78.40;;;;;;4919518;29;20032;-95
2021/08/28 11:25:49;;;;;;;4.03;1.63;;;21.70;78.50;;;;;;4919019;29;20028;-96
2021/08/28 11:28:18;;;;;;;5.28;2.13;;;21.90;77.60;;;;;;4918877;29;20438;-95
2021/08/28 11:30:47;;;;;;;6.32;2.08;;;21.90;76.80;;;;;;4919016;29;20028;-96
2021/08/28 11:33:28;;;;;;;3.67;1.88;;;22.10;76.50;;;;;;4918847;29;20551;-96
2021/08/28 11:36:05;;;;;;;4.03;2.03;;;22.50;75.80;;;;;;4903094;29;20036;-96
2021/08/28 11:39:08;;;;;;;5.85;1.90;;;23.10;74.60;;;;;;4918872;29;20036;-95
2021/08/28 11:41:33;;;;;;;4.00;1.98;;;23.70;72.60;;;;;;4885821;29;20040;-96
2021/08/28 11:43:59;;;;;;;4.68;1.75;;;24.10;71.50;;;;;;4919300;29;20042;-95
2021/08/28 11:46:33;;;;;;;3.97;2.10;;;24.50;70.50;;;;;;4918536;29;20052;-95
2021/08/28 11:48:59;;;;;;;5.85;1.85;;;24.90;69.40;;;;;;4918627;29;20034;-95
2021/08/28 11:51:51;;;;;;;4.45;2.40;;;25.20;67.60;;;;;;4918915;29;20032;-96
2021/08/28 11:54:19;;;;;;;5.70;2.45;;;25.20;66.30;;;;;;4918542;29;20036;-95
2021/08/28 11:56:45;;;;;;;4.28;1.73;;;25.20;65.60;;;;;;4918284;29;20127;-95
2021/08/28 11:59:10;;;;;;;3.90;2.10;;;25.10;66.20;;;;;;4918155;29;20459;-95
2021/08/28 12:01:41;;;;;;;3.75;2.00;;;25.10;65.70;;;;;;4918496;29;20024;-94
2021/08/28 12:04:23;;;;;;;4.75;2.00;;;25.00;65.20;;;;;;4919182;29;20123;-95
2021/08/28 12:06:57;;;;;;;4.40;1.88;;;25.00;65.10;;;;;;4918655;29;20020;-95
2021/08/28 12:09:24;;;;;;;6.20;2.08;;;24.80;65.20;;;;;;4905596;29;20091;-94
2021/08/28 12:12:19;;;;;;;3.78;1.73;;;24.70;65.70;;;;;;4918933;29;20545;-95
2021/08/28 12:14:55;;;;;;;6.45;1.98;;;24.60;65.30;;;;;;4899290;29;20058;-95
2021/08/28 12:17:29;;;;;;;4.75;2.20;;;24.40;64.60;;;;;;4918769;29;20051;-95
2021/08/28 12:19:59;;;;;;;7.00;2.10;;;24.30;64.10;;;;;;4918023;29;20028;-94
2021/08/28 12:22:25;;;;;;;4.93;1.98;;;24.20;64.10;;;;;;4917816;29;20611;-95
2021/08/28 12:24:51;;;;;;;5.93;2.47;;;24.20;64.20;;;;;;4918393;29;20119;-95
2021/08/28 12:27:16;;;;;;;3.38;2.08;;;24.10;64.30;;;;;;4917979;29;20356;-95
2021/08/28 12:29:47;;;;;;;4.78;1.92;;;24.10;64.70;;;;;;4917569;29;20442;-95
2021/08/28 12:32:20;;;;;;;;;;;24.10;65.20;;;;;;4919744;29;20546;-94
2021/08/28 12:34:48;;;;;;;3.85;1.83;;;23.90;65.70;;;;;;4905153;29;19911;-95
2021/08/28 12:37:17;;;;;;;5.97;2.40;;;23.80;66.30;;;;;;4931752;29;20490;-94
2021/08/28 12:39:47;;;;;;;4.05;2.17;;;24.00;66.40;;;;;;4936913;29;20034;-95
2021/08/28 12:42:17;;;;;;;6.13;2.22;;;24.40;65.40;;;;;;4923177;29;20038;-95
2021/08/28 12:44:45;;;;;;;5.87;1.90;;;24.70;64.30;;;;;;4920211;29;20032;-95
2021/08/28 12:47:12;;;;;;;3.33;2.03;;;25.10;63.40;;;;;;4903010;29;20028;-95